sensor_id;sensor_type;location;lat;lon;timestamp;temperature;humidity
5675;DHT22;2860;54.284;10.158;2022-07-29T00:02:11;10.20;99.90
5675;DHT22;2860;54.284;10.158;2022-07-29T00:04:37;10.10;99.90
5675;DHT22;2860;54.284;10.158;2022-07-29T00:07:03;10.10;99.90
5675;DHT22;2860;54.284;10.158;2022-07-29T00:09:29;10.10;99.90
5675;DHT22;2860;54.284;10.158;2022-07-29T00:11:57;10.10;99.90
5675;DHT22;2860;54.284;10.158;2022-07-29T00:14:23;10.00;99.90
5675;DHT22;2860;54.284;10.158;2022-07-29T00:16:49;10.00;99.90
5675;DHT22;2860;54.284;10.158;2022-07-29T00:19:14;10.00;99.90
5675;DHT22;2860;54.284;10.158;2022-07-29T00:21:40;10.00;99.90
5675;DHT22;2860;54.284;10.158;2022-07-29T00:24:06;9.90;99.90
5675;DHT22;2860;54.284;10.158;2022-07-29T00:26:31;9.90;99.90
5675;DHT22;2860;54.284;10.158;2022-07-29T00:29:02;9.90;99.90
5675;DHT22;2860;54.284;10.158;2022-07-29T00:31:28;9.90;99.90
5675;DHT22;2860;54.284;10.158;2022-07-29T00:33:54;9.80;99.90
5675;DHT22;2860;54.284;10.158;2022-07-29T00:36:19;9.80;99.90
5675;DHT22;2860;54.284;10.158;2022-07-29T00:38:47;9.80;99.90
5675;DHT22;2860;54.284;10.158;2022-07-29T00:41:13;9.80;99.90
5675;DHT22;2860;54.284;10.158;2022-07-29T00:43:38;9.80;99.90
5675;DHT22;2860;54.284;10.158;2022-07-29T00:46:04;9.80;99.90
5675;DHT22;2860;54.284;10.158;2022-07-29T00:48:29;9.70;99.90
5675;DHT22;2860;54.284;10.158;2022-07-29T00:50:57;9.70;99.90
5675;DHT22;2860;54.284;10.158;2022-07-29T00:53:23;9.70;99.90
5675;DHT22;2860;54.284;10.158;2022-07-29T00:55:50;9.70;99.90
5675;DHT22;2860;54.284;10.158;2022-07-29T00:58:15;9.70;99.90
5675;DHT22;2860;54.284;10.158;2022-07-29T01:00:41;9.60;99.90
5675;DHT22;2860;54.284;10.158;2022-07-29T01:03:07;9.60;99.90
5675;DHT22;2860;54.284;10.158;2022-07-29T01:05:34;9.60;99.90
5675;DHT22;2860;54.284;10.158;2022-07-29T01:08:00;9.60;99.90
5675;DHT22;2860;54.284;10.158;2022-07-29T01:10:27;9.60;99.90
5675;DHT22;2860;54.284;10.158;2022-07-29T01:12:55;9.50;99.90
5675;DHT22;2860;54.284;10.158;2022-07-29T01:15:22;9.50;99.90
5675;DHT22;2860;54.284;10.158;2022-07-29T01:18:22;9.40;99.90
5675;DHT22;2860;54.284;10.158;2022-07-29T01:21:15;9.40;99.90
5675;DHT22;2860;54.284;10.158;2022-07-29T01:24:01;9.40;99.90
5675;DHT22;2860;54.284;10.158;2022-07-29T01:29:16;9.30;99.90
5675;DHT22;2860;54.284;10.158;2022-07-29T01:31:54;9.30;99.90
5675;DHT22;2860;54.284;10.158;2022-07-29T01:34:24;9.30;99.90
5675;DHT22;2860;54.284;10.158;2022-07-29T01:37:18;9.30;99.90
5675;DHT22;2860;54.284;10.158;2022-07-29T01:39:46;9.30;99.90
5675;DHT22;2860;54.284;10.158;2022-07-29T01:42:20;9.30;99.90
5675;DHT22;2860;54.284;10.158;2022-07-29T01:45:10;9.20;99.90
5675;DHT22;2860;54.284;10.158;2022-07-29T01:47:43;9.20;99.90
5675;DHT22;2860;54.284;10.158;2022-07-29T01:53:38;9.20;99.90
5675;DHT22;2860;54.284;10.158;2022-07-29T01:56:08;9.20;99.90
5675;DHT22;2860;54.284;10.158;2022-07-29T01:58:36;9.20;99.90
5675;DHT22;2860;54.284;10.158;2022-07-29T02:01:04;9.20;99.90
5675;DHT22;2860;54.284;10.158;2022-07-29T02:03:31;9.20;99.90
5675;DHT22;2860;54.284;10.158;2022-07-29T02:05:58;9.20;99.90
5675;DHT22;2860;54.284;10.158;2022-07-29T02:08:25;9.20;99.90
5675;DHT22;2860;54.284;10.158;2022-07-29T02:10:52;9.20;99.90
5675;DHT22;2860;54.284;10.158;2022-07-29T02:13:19;9.20;99.90
5675;DHT22;2860;54.284;10.158;2022-07-29T02:15:46;9.20;99.90
5675;DHT22;2860;54.284;10.158;2022-07-29T02:18:15;9.20;99.90
5675;DHT22;2860;54.284;10.158;2022-07-29T02:20:45;9.10;99.90
5675;DHT22;2860;54.284;10.158;2022-07-29T02:23:12;9.10;99.90
5675;DHT22;2860;54.284;10.158;2022-07-29T02:25:41;9.10;99.90
5675;DHT22;2860;54.284;10.158;2022-07-29T02:28:08;9.10;99.90
5675;DHT22;2860;54.284;10.158;2022-07-29T02:30:36;9.10;99.90
5675;DHT22;2860;54.284;10.158;2022-07-29T02:33:05;9.10;99.90
5675;DHT22;2860;54.284;10.158;2022-07-29T02:35:32;9.10;99.90
5675;DHT22;2860;54.284;10.158;2022-07-29T02:37:58;9.00;99.90
5675;DHT22;2860;54.284;10.158;2022-07-29T02:40:43;9.00;99.90
5675;DHT22;2860;54.284;10.158;2022-07-29T02:43:09;9.00;99.90
5675;DHT22;2860;54.284;10.158;2022-07-29T02:45:36;9.00;99.90
5675;DHT22;2860;54.284;10.158;2022-07-29T02:48:06;9.00;99.90
5675;DHT22;2860;54.284;10.158;2022-07-29T02:50:38;9.00;99.90
5675;DHT22;2860;54.284;10.158;2022-07-29T02:53:07;9.00;99.90
5675;DHT22;2860;54.284;10.158;2022-07-29T02:55:37;9.00;99.90
5675;DHT22;2860;54.284;10.158;2022-07-29T02:58:19;9.00;99.90
5675;DHT22;2860;54.284;10.158;2022-07-29T03:00:49;8.90;99.90
5675;DHT22;2860;54.284;10.158;2022-07-29T03:03:18;8.90;99.90
5675;DHT22;2860;54.284;10.158;2022-07-29T03:05:44;8.90;99.90
5675;DHT22;2860;54.284;10.158;2022-07-29T03:08:11;8.90;99.90
5675;DHT22;2860;54.284;10.158;2022-07-29T03:10:39;8.90;99.90
5675;DHT22;2860;54.284;10.158;2022-07-29T03:13:08;8.90;99.90
5675;DHT22;2860;54.284;10.158;2022-07-29T03:15:35;8.90;99.90
5675;DHT22;2860;54.284;10.158;2022-07-29T03:18:01;8.90;99.90
5675;DHT22;2860;54.284;10.158;2022-07-29T03:20:27;8.90;99.90
5675;DHT22;2860;54.284;10.158;2022-07-29T03:22:52;8.90;99.90
5675;DHT22;2860;54.284;10.158;2022-07-29T03:25:19;9.00;99.90
5675;DHT22;2860;54.284;10.158;2022-07-29T03:27:46;9.00;99.90
5675;DHT22;2860;54.284;10.158;2022-07-29T03:30:13;9.00;99.90
5675;DHT22;2860;54.284;10.158;2022-07-29T03:32:39;9.10;99.90
5675;DHT22;2860;54.284;10.158;2022-07-29T03:35:06;9.10;99.90
5675;DHT22;2860;54.284;10.158;2022-07-29T03:37:31;9.20;99.90
5675;DHT22;2860;54.284;10.158;2022-07-29T03:40:00;9.20;99.90
5675;DHT22;2860;54.284;10.158;2022-07-29T03:42:33;9.30;99.90
5675;DHT22;2860;54.284;10.158;2022-07-29T03:45:02;9.40;99.90
5675;DHT22;2860;54.284;10.158;2022-07-29T03:47:30;9.40;99.90
5675;DHT22;2860;54.284;10.158;2022-07-29T03:50:02;9.50;99.90
5675;DHT22;2860;54.284;10.158;2022-07-29T03:52:30;9.60;99.90
5675;DHT22;2860;54.284;10.158;2022-07-29T03:54:56;9.70;99.90
5675;DHT22;2860;54.284;10.158;2022-07-29T04:00:43;9.80;99.90
5675;DHT22;2860;54.284;10.158;2022-07-29T04:03:10;9.90;99.90
5675;DHT22;2860;54.284;10.158;2022-07-29T04:05:35;10.10;99.90
5675;DHT22;2860;54.284;10.158;2022-07-29T04:08:01;10.10;99.90
5675;DHT22;2860;54.284;10.158;2022-07-29T04:10:27;10.20;99.90
5675;DHT22;2860;54.284;10.158;2022-07-29T04:12:52;10.20;99.90
5675;DHT22;2860;54.284;10.158;2022-07-29T04:15:18;10.20;99.90
5675;DHT22;2860;54.284;10.158;2022-07-29T04:17:44;10.20;99.90
5675;DHT22;2860;54.284;10.158;2022-07-29T04:20:10;10.20;99.90
5675;DHT22;2860;54.284;10.158;2022-07-29T04:22:39;10.30;99.90
5675;DHT22;2860;54.284;10.158;2022-07-29T04:25:04;10.40;99.90
5675;DHT22;2860;54.284;10.158;2022-07-29T04:27:30;10.40;99.90
5675;DHT22;2860;54.284;10.158;2022-07-29T04:29:55;10.50;99.90
5675;DHT22;2860;54.284;10.158;2022-07-29T04:32:21;10.50;99.90
5675;DHT22;2860;54.284;10.158;2022-07-29T04:34:46;10.60;99.90
5675;DHT22;2860;54.284;10.158;2022-07-29T04:37:12;10.70;99.90
5675;DHT22;2860;54.284;10.158;2022-07-29T04:39:38;10.70;99.90
5675;DHT22;2860;54.284;10.158;2022-07-29T04:42:03;10.70;99.90
5675;DHT22;2860;54.284;10.158;2022-07-29T04:44:29;10.80;99.90
5675;DHT22;2860;54.284;10.158;2022-07-29T04:46:55;10.80;99.90
5675;DHT22;2860;54.284;10.158;2022-07-29T04:49:21;10.90;99.90
5675;DHT22;2860;54.284;10.158;2022-07-29T04:51:46;10.90;99.90
5675;DHT22;2860;54.284;10.158;2022-07-29T04:54:12;11.00;99.90
5675;DHT22;2860;54.284;10.158;2022-07-29T04:56:37;11.00;99.90
5675;DHT22;2860;54.284;10.158;2022-07-29T04:59:03;11.10;99.90
5675;DHT22;2860;54.284;10.158;2022-07-29T05:01:28;11.20;99.90
5675;DHT22;2860;54.284;10.158;2022-07-29T05:03:54;11.30;99.90
5675;DHT22;2860;54.284;10.158;2022-07-29T05:06:19;11.40;99.90
5675;DHT22;2860;54.284;10.158;2022-07-29T05:08:45;11.50;99.90
5675;DHT22;2860;54.284;10.158;2022-07-29T05:11:10;11.60;99.90
5675;DHT22;2860;54.284;10.158;2022-07-29T05:13:36;11.80;99.90
5675;DHT22;2860;54.284;10.158;2022-07-29T05:16:01;12.00;99.90
5675;DHT22;2860;54.284;10.158;2022-07-29T05:18:27;12.20;99.90
5675;DHT22;2860;54.284;10.158;2022-07-29T05:20:53;12.50;99.90
5675;DHT22;2860;54.284;10.158;2022-07-29T05:23:19;12.70;99.90
5675;DHT22;2860;54.284;10.158;2022-07-29T05:25:44;13.00;99.90
5675;DHT22;2860;54.284;10.158;2022-07-29T05:28:11;13.20;99.90
5675;DHT22;2860;54.284;10.158;2022-07-29T05:30:36;13.30;99.90
5675;DHT22;2860;54.284;10.158;2022-07-29T05:33:02;13.50;99.90
5675;DHT22;2860;54.284;10.158;2022-07-29T05:35:27;13.60;99.90
5675;DHT22;2860;54.284;10.158;2022-07-29T05:37:53;13.70;99.90
5675;DHT22;2860;54.284;10.158;2022-07-29T05:40:18;13.80;99.90
5675;DHT22;2860;54.284;10.158;2022-07-29T05:42:44;14.00;99.90
5675;DHT22;2860;54.284;10.158;2022-07-29T05:45:10;14.10;99.90
5675;DHT22;2860;54.284;10.158;2022-07-29T05:47:35;14.20;99.90
5675;DHT22;2860;54.284;10.158;2022-07-29T05:50:01;14.30;99.90
5675;DHT22;2860;54.284;10.158;2022-07-29T05:52:26;14.40;99.90
5675;DHT22;2860;54.284;10.158;2022-07-29T05:54:52;14.60;99.90
5675;DHT22;2860;54.284;10.158;2022-07-29T05:57:19;14.80;99.90
5675;DHT22;2860;54.284;10.158;2022-07-29T05:59:45;15.00;99.90
5675;DHT22;2860;54.284;10.158;2022-07-29T06:02:12;15.30;99.90
5675;DHT22;2860;54.284;10.158;2022-07-29T06:04:37;15.60;99.90
5675;DHT22;2860;54.284;10.158;2022-07-29T06:07:03;16.10;99.90
5675;DHT22;2860;54.284;10.158;2022-07-29T06:09:29;16.70;99.90
5675;DHT22;2860;54.284;10.158;2022-07-29T06:11:54;17.30;99.90
5675;DHT22;2860;54.284;10.158;2022-07-29T06:14:20;17.80;99.90
5675;DHT22;2860;54.284;10.158;2022-07-29T06:16:45;18.10;99.90
5675;DHT22;2860;54.284;10.158;2022-07-29T06:19:11;18.30;99.90
5675;DHT22;2860;54.284;10.158;2022-07-29T06:21:43;18.40;99.90
5675;DHT22;2860;54.284;10.158;2022-07-29T06:24:10;18.40;99.90
5675;DHT22;2860;54.284;10.158;2022-07-29T06:26:37;18.50;99.90
5675;DHT22;2860;54.284;10.158;2022-07-29T06:29:03;18.60;99.90
5675;DHT22;2860;54.284;10.158;2022-07-29T06:31:28;18.80;99.90
5675;DHT22;2860;54.284;10.158;2022-07-29T06:33:54;18.80;99.90
5675;DHT22;2860;54.284;10.158;2022-07-29T06:36:19;18.70;99.90
5675;DHT22;2860;54.284;10.158;2022-07-29T06:38:45;18.60;99.90
5675;DHT22;2860;54.284;10.158;2022-07-29T06:41:13;18.60;99.90
5675;DHT22;2860;54.284;10.158;2022-07-29T06:43:43;18.70;99.90
5675;DHT22;2860;54.284;10.158;2022-07-29T06:46:11;18.90;99.90
5675;DHT22;2860;54.284;10.158;2022-07-29T06:48:38;19.00;99.90
5675;DHT22;2860;54.284;10.158;2022-07-29T06:51:05;19.10;99.90
5675;DHT22;2860;54.284;10.158;2022-07-29T06:53:32;19.10;99.90
5675;DHT22;2860;54.284;10.158;2022-07-29T06:55:58;19.10;99.90
5675;DHT22;2860;54.284;10.158;2022-07-29T06:58:28;19.20;99.90
5675;DHT22;2860;54.284;10.158;2022-07-29T07:00:54;19.30;99.90
5675;DHT22;2860;54.284;10.158;2022-07-29T07:03:19;19.30;99.90
5675;DHT22;2860;54.284;10.158;2022-07-29T07:05:45;19.00;99.90
5675;DHT22;2860;54.284;10.158;2022-07-29T07:08:12;18.90;99.90
5675;DHT22;2860;54.284;10.158;2022-07-29T07:10:38;18.90;99.90
5675;DHT22;2860;54.284;10.158;2022-07-29T07:13:04;19.10;99.90
5675;DHT22;2860;54.284;10.158;2022-07-29T07:15:30;19.40;99.90
5675;DHT22;2860;54.284;10.158;2022-07-29T07:17:56;19.60;99.90
5675;DHT22;2860;54.284;10.158;2022-07-29T07:20:23;19.70;99.90
5675;DHT22;2860;54.284;10.158;2022-07-29T07:22:48;19.80;99.90
5675;DHT22;2860;54.284;10.158;2022-07-29T07:25:14;19.80;99.90
5675;DHT22;2860;54.284;10.158;2022-07-29T07:27:39;19.90;99.90
5675;DHT22;2860;54.284;10.158;2022-07-29T07:30:07;19.80;99.90
5675;DHT22;2860;54.284;10.158;2022-07-29T07:32:33;19.80;99.90
5675;DHT22;2860;54.284;10.158;2022-07-29T07:34:59;19.60;99.90
5675;DHT22;2860;54.284;10.158;2022-07-29T07:37:25;19.70;99.90
5675;DHT22;2860;54.284;10.158;2022-07-29T07:39:51;19.90;99.90
5675;DHT22;2860;54.284;10.158;2022-07-29T07:42:17;20.00;99.90
5675;DHT22;2860;54.284;10.158;2022-07-29T07:44:43;20.20;99.90
5675;DHT22;2860;54.284;10.158;2022-07-29T07:47:11;20.30;99.90
5675;DHT22;2860;54.284;10.158;2022-07-29T07:49:36;20.50;99.90
5675;DHT22;2860;54.284;10.158;2022-07-29T07:52:02;20.70;99.90
5675;DHT22;2860;54.284;10.158;2022-07-29T07:54:28;20.80;99.90
5675;DHT22;2860;54.284;10.158;2022-07-29T07:56:53;21.10;99.90
5675;DHT22;2860;54.284;10.158;2022-07-29T07:59:19;21.30;99.90
5675;DHT22;2860;54.284;10.158;2022-07-29T08:01:44;21.30;99.90
5675;DHT22;2860;54.284;10.158;2022-07-29T08:04:10;21.30;99.90
5675;DHT22;2860;54.284;10.158;2022-07-29T08:06:35;21.30;99.90
5675;DHT22;2860;54.284;10.158;2022-07-29T08:09:15;21.40;99.90
5675;DHT22;2860;54.284;10.158;2022-07-29T08:12:01;21.60;99.90
5675;DHT22;2860;54.284;10.158;2022-07-29T08:14:31;21.70;99.90
5675;DHT22;2860;54.284;10.158;2022-07-29T08:16:57;21.60;99.90
5675;DHT22;2860;54.284;10.158;2022-07-29T08:19:22;21.50;99.90
5675;DHT22;2860;54.284;10.158;2022-07-29T08:21:48;21.40;99.90
5675;DHT22;2860;54.284;10.158;2022-07-29T08:24:13;21.40;99.90
5675;DHT22;2860;54.284;10.158;2022-07-29T08:26:57;21.30;99.90
5675;DHT22;2860;54.284;10.158;2022-07-29T08:29:23;21.10;99.90
5675;DHT22;2860;54.284;10.158;2022-07-29T08:31:49;21.00;99.90
5675;DHT22;2860;54.284;10.158;2022-07-29T08:34:14;21.10;99.90
5675;DHT22;2860;54.284;10.158;2022-07-29T08:36:40;21.10;99.90
5675;DHT22;2860;54.284;10.158;2022-07-29T08:39:05;21.20;99.90
5675;DHT22;2860;54.284;10.158;2022-07-29T08:41:31;21.10;99.90
5675;DHT22;2860;54.284;10.158;2022-07-29T08:43:56;21.20;99.90
5675;DHT22;2860;54.284;10.158;2022-07-29T08:46:23;21.30;99.90
5675;DHT22;2860;54.284;10.158;2022-07-29T08:48:49;21.50;99.90
5675;DHT22;2860;54.284;10.158;2022-07-29T08:51:19;21.60;99.90
5675;DHT22;2860;54.284;10.158;2022-07-29T08:53:47;21.80;99.90
5675;DHT22;2860;54.284;10.158;2022-07-29T08:56:14;21.90;99.90
5675;DHT22;2860;54.284;10.158;2022-07-29T08:58:42;22.10;99.90
5675;DHT22;2860;54.284;10.158;2022-07-29T09:01:09;22.20;99.90
5675;DHT22;2860;54.284;10.158;2022-07-29T09:03:36;22.40;99.90
5675;DHT22;2860;54.284;10.158;2022-07-29T09:06:03;22.50;99.90
5675;DHT22;2860;54.284;10.158;2022-07-29T09:08:31;22.50;99.90
5675;DHT22;2860;54.284;10.158;2022-07-29T09:10:57;22.60;99.90
5675;DHT22;2860;54.284;10.158;2022-07-29T09:13:23;23.00;99.90
5675;DHT22;2860;54.284;10.158;2022-07-29T09:15:49;23.30;99.90
5675;DHT22;2860;54.284;10.158;2022-07-29T09:18:40;23.60;99.90
5675;DHT22;2860;54.284;10.158;2022-07-29T09:21:09;23.70;99.90
5675;DHT22;2860;54.284;10.158;2022-07-29T09:24:04;23.40;99.90
5675;DHT22;2860;54.284;10.158;2022-07-29T09:26:32;23.20;99.90
5675;DHT22;2860;54.284;10.158;2022-07-29T09:28:58;22.90;99.90
5675;DHT22;2860;54.284;10.158;2022-07-29T09:31:38;22.90;99.90
5675;DHT22;2860;54.284;10.158;2022-07-29T09:34:04;23.00;99.90
5675;DHT22;2860;54.284;10.158;2022-07-29T09:36:30;22.90;99.90
5675;DHT22;2860;54.284;10.158;2022-07-29T09:38:59;22.90;99.90
5675;DHT22;2860;54.284;10.158;2022-07-29T09:41:27;22.90;99.90
5675;DHT22;2860;54.284;10.158;2022-07-29T09:43:57;23.10;99.90
5675;DHT22;2860;54.284;10.158;2022-07-29T09:46:23;23.20;99.90
5675;DHT22;2860;54.284;10.158;2022-07-29T09:49:11;23.40;99.90
5675;DHT22;2860;54.284;10.158;2022-07-29T09:51:37;23.50;99.90
5675;DHT22;2860;54.284;10.158;2022-07-29T09:54:30;23.50;99.90
5675;DHT22;2860;54.284;10.158;2022-07-29T09:57:02;23.40;99.90
5675;DHT22;2860;54.284;10.158;2022-07-29T09:59:28;23.50;99.90
5675;DHT22;2860;54.284;10.158;2022-07-29T10:01:53;23.60;99.90
5675;DHT22;2860;54.284;10.158;2022-07-29T10:04:19;23.70;99.90
5675;DHT22;2860;54.284;10.158;2022-07-29T10:07:01;23.70;99.90
5675;DHT22;2860;54.284;10.158;2022-07-29T10:09:27;23.70;99.90
5675;DHT22;2860;54.284;10.158;2022-07-29T10:14:33;23.70;99.90
5675;DHT22;2860;54.284;10.158;2022-07-29T10:17:02;23.70;99.90
5675;DHT22;2860;54.284;10.158;2022-07-29T10:19:30;23.70;99.90
5675;DHT22;2860;54.284;10.158;2022-07-29T10:21:57;23.90;99.90
5675;DHT22;2860;54.284;10.158;2022-07-29T10:24:25;23.80;99.90
5675;DHT22;2860;54.284;10.158;2022-07-29T10:26:53;23.80;99.90
5675;DHT22;2860;54.284;10.158;2022-07-29T10:29:19;24.00;99.90
5675;DHT22;2860;54.284;10.158;2022-07-29T10:34:57;24.40;99.90
5675;DHT22;2860;54.284;10.158;2022-07-29T10:43:37;24.90;99.90
5675;DHT22;2860;54.284;10.158;2022-07-29T10:46:06;25.00;99.90
5675;DHT22;2860;54.284;10.158;2022-07-29T10:48:32;25.20;99.90
5675;DHT22;2860;54.284;10.158;2022-07-29T10:51:00;25.20;99.90
5675;DHT22;2860;54.284;10.158;2022-07-29T10:53:46;25.10;99.90
5675;DHT22;2860;54.284;10.158;2022-07-29T10:56:29;25.20;99.90
5675;DHT22;2860;54.284;10.158;2022-07-29T11:01:49;25.20;99.90
5675;DHT22;2860;54.284;10.158;2022-07-29T11:04:15;25.00;99.90
5675;DHT22;2860;54.284;10.158;2022-07-29T11:09:28;24.50;99.90
5675;DHT22;2860;54.284;10.158;2022-07-29T11:11:56;24.50;99.90
5675;DHT22;2860;54.284;10.158;2022-07-29T11:17:17;24.90;99.90
5675;DHT22;2860;54.284;10.158;2022-07-29T11:19:43;24.80;99.90
5675;DHT22;2860;54.284;10.158;2022-07-29T11:22:10;24.80;99.90
5675;DHT22;2860;54.284;10.158;2022-07-29T11:24:36;24.70;99.90
5675;DHT22;2860;54.284;10.158;2022-07-29T11:27:08;24.60;99.90
5675;DHT22;2860;54.284;10.158;2022-07-29T11:29:37;24.50;99.90
5675;DHT22;2860;54.284;10.158;2022-07-29T11:32:12;24.60;99.90
5675;DHT22;2860;54.284;10.158;2022-07-29T11:34:40;24.70;99.90
5675;DHT22;2860;54.284;10.158;2022-07-29T11:45:00;24.50;99.90
5675;DHT22;2860;54.284;10.158;2022-07-29T11:47:27;24.50;99.90
5675;DHT22;2860;54.284;10.158;2022-07-29T11:49:54;24.70;99.90
5675;DHT22;2860;54.284;10.158;2022-07-29T11:52:20;24.90;99.90
5675;DHT22;2860;54.284;10.158;2022-07-29T11:54:50;25.00;99.90
5675;DHT22;2860;54.284;10.158;2022-07-29T11:57:17;25.20;99.90
5675;DHT22;2860;54.284;10.158;2022-07-29T11:59:45;25.50;99.90
5675;DHT22;2860;54.284;10.158;2022-07-29T12:02:12;25.90;99.90
5675;DHT22;2860;54.284;10.158;2022-07-29T12:04:55;25.90;99.90
5675;DHT22;2860;54.284;10.158;2022-07-29T12:07:33;25.90;99.90
5675;DHT22;2860;54.284;10.158;2022-07-29T12:09:58;26.00;99.90
5675;DHT22;2860;54.284;10.158;2022-07-29T12:12:27;26.00;99.90
5675;DHT22;2860;54.284;10.158;2022-07-29T12:14:52;25.90;99.90
5675;DHT22;2860;54.284;10.158;2022-07-29T12:17:27;25.70;99.90
5675;DHT22;2860;54.284;10.158;2022-07-29T12:19:54;25.60;99.90
5675;DHT22;2860;54.284;10.158;2022-07-29T12:22:26;25.40;99.90
5675;DHT22;2860;54.284;10.158;2022-07-29T12:24:52;25.30;99.90
5675;DHT22;2860;54.284;10.158;2022-07-29T12:27:18;25.00;99.90
5675;DHT22;2860;54.284;10.158;2022-07-29T12:29:43;24.90;99.90
5675;DHT22;2860;54.284;10.158;2022-07-29T12:32:09;24.70;99.90
5675;DHT22;2860;54.284;10.158;2022-07-29T12:34:35;24.50;99.90
5675;DHT22;2860;54.284;10.158;2022-07-29T12:37:01;24.50;99.90
5675;DHT22;2860;54.284;10.158;2022-07-29T12:39:27;24.50;99.90
5675;DHT22;2860;54.284;10.158;2022-07-29T12:41:53;24.30;99.90
5675;DHT22;2860;54.284;10.158;2022-07-29T12:44:22;24.10;99.90
5675;DHT22;2860;54.284;10.158;2022-07-29T12:47:02;24.20;99.90
5675;DHT22;2860;54.284;10.158;2022-07-29T12:49:27;24.30;99.90
5675;DHT22;2860;54.284;10.158;2022-07-29T12:51:53;24.40;99.90
5675;DHT22;2860;54.284;10.158;2022-07-29T12:54:18;24.60;99.90
5675;DHT22;2860;54.284;10.158;2022-07-29T12:56:44;24.60;99.90
5675;DHT22;2860;54.284;10.158;2022-07-29T12:59:19;24.50;99.90
5675;DHT22;2860;54.284;10.158;2022-07-29T13:01:47;24.50;99.90
5675;DHT22;2860;54.284;10.158;2022-07-29T13:04:33;24.50;99.90
5675;DHT22;2860;54.284;10.158;2022-07-29T13:07:04;24.40;99.90
5675;DHT22;2860;54.284;10.158;2022-07-29T13:09:42;24.40;99.90
5675;DHT22;2860;54.284;10.158;2022-07-29T13:12:10;24.50;99.90
5675;DHT22;2860;54.284;10.158;2022-07-29T13:14:46;24.60;99.90
5675;DHT22;2860;54.284;10.158;2022-07-29T13:17:16;24.60;99.90
5675;DHT22;2860;54.284;10.158;2022-07-29T13:19:43;24.40;99.90
5675;DHT22;2860;54.284;10.158;2022-07-29T13:22:11;24.40;99.90
5675;DHT22;2860;54.284;10.158;2022-07-29T13:24:51;24.40;99.90
5675;DHT22;2860;54.284;10.158;2022-07-29T13:27:18;24.20;99.90
5675;DHT22;2860;54.284;10.158;2022-07-29T13:29:44;24.00;99.90
5675;DHT22;2860;54.284;10.158;2022-07-29T13:32:10;23.80;99.90
5675;DHT22;2860;54.284;10.158;2022-07-29T13:34:36;23.70;99.90
5675;DHT22;2860;54.284;10.158;2022-07-29T13:37:01;23.70;99.90
5675;DHT22;2860;54.284;10.158;2022-07-29T13:39:27;23.80;99.90
5675;DHT22;2860;54.284;10.158;2022-07-29T13:41:52;23.70;99.90
5675;DHT22;2860;54.284;10.158;2022-07-29T13:44:19;23.70;99.90
5675;DHT22;2860;54.284;10.158;2022-07-29T13:46:44;23.90;99.90
5675;DHT22;2860;54.284;10.158;2022-07-29T13:49:10;23.80;99.90
5675;DHT22;2860;54.284;10.158;2022-07-29T13:51:36;23.70;99.90
5675;DHT22;2860;54.284;10.158;2022-07-29T13:54:02;23.80;99.90
5675;DHT22;2860;54.284;10.158;2022-07-29T13:56:28;23.90;99.90
5675;DHT22;2860;54.284;10.158;2022-07-29T13:58:53;24.10;99.90
5675;DHT22;2860;54.284;10.158;2022-07-29T14:01:19;23.90;99.90
5675;DHT22;2860;54.284;10.158;2022-07-29T14:03:44;23.90;99.90
5675;DHT22;2860;54.284;10.158;2022-07-29T14:06:10;23.70;99.90
5675;DHT22;2860;54.284;10.158;2022-07-29T14:08:36;23.60;99.90
5675;DHT22;2860;54.284;10.158;2022-07-29T14:11:01;23.50;99.90
5675;DHT22;2860;54.284;10.158;2022-07-29T14:13:27;23.50;99.90
5675;DHT22;2860;54.284;10.158;2022-07-29T14:16:05;23.50;99.90
5675;DHT22;2860;54.284;10.158;2022-07-29T14:18:45;23.60;99.90
5675;DHT22;2860;54.284;10.158;2022-07-29T14:21:12;23.70;99.90
5675;DHT22;2860;54.284;10.158;2022-07-29T14:23:37;23.70;99.90
5675;DHT22;2860;54.284;10.158;2022-07-29T14:26:03;23.60;99.90
5675;DHT22;2860;54.284;10.158;2022-07-29T14:28:28;23.60;99.90
5675;DHT22;2860;54.284;10.158;2022-07-29T14:30:54;23.60;99.90
5675;DHT22;2860;54.284;10.158;2022-07-29T14:33:19;23.50;99.90
5675;DHT22;2860;54.284;10.158;2022-07-29T14:35:45;23.50;99.90
5675;DHT22;2860;54.284;10.158;2022-07-29T14:38:10;23.50;99.90
5675;DHT22;2860;54.284;10.158;2022-07-29T14:40:36;23.50;99.90
5675;DHT22;2860;54.284;10.158;2022-07-29T14:43:02;23.60;99.90
5675;DHT22;2860;54.284;10.158;2022-07-29T14:45:28;23.70;99.90
5675;DHT22;2860;54.284;10.158;2022-07-29T14:47:54;23.90;99.90
5675;DHT22;2860;54.284;10.158;2022-07-29T14:50:20;24.10;99.90
5675;DHT22;2860;54.284;10.158;2022-07-29T14:52:45;24.30;99.90
5675;DHT22;2860;54.284;10.158;2022-07-29T14:55:11;24.40;99.90
5675;DHT22;2860;54.284;10.158;2022-07-29T14:57:37;24.40;99.90
5675;DHT22;2860;54.284;10.158;2022-07-29T15:00:04;24.60;99.90
5675;DHT22;2860;54.284;10.158;2022-07-29T15:02:31;24.90;99.90
5675;DHT22;2860;54.284;10.158;2022-07-29T15:04:56;25.10;99.90
5675;DHT22;2860;54.284;10.158;2022-07-29T15:07:22;25.30;99.90
5675;DHT22;2860;54.284;10.158;2022-07-29T15:09:47;25.40;99.90
5675;DHT22;2860;54.284;10.158;2022-07-29T15:12:13;25.40;99.90
5675;DHT22;2860;54.284;10.158;2022-07-29T15:14:38;25.30;99.90
5675;DHT22;2860;54.284;10.158;2022-07-29T15:17:04;25.40;99.90
5675;DHT22;2860;54.284;10.158;2022-07-29T15:19:30;25.30;99.90
5675;DHT22;2860;54.284;10.158;2022-07-29T15:21:55;25.20;99.90
5675;DHT22;2860;54.284;10.158;2022-07-29T15:24:21;25.20;99.90
5675;DHT22;2860;54.284;10.158;2022-07-29T15:26:47;25.20;99.90
5675;DHT22;2860;54.284;10.158;2022-07-29T15:29:13;25.20;99.90
5675;DHT22;2860;54.284;10.158;2022-07-29T15:31:39;25.20;99.90
5675;DHT22;2860;54.284;10.158;2022-07-29T15:34:04;25.10;99.90
5675;DHT22;2860;54.284;10.158;2022-07-29T15:36:30;25.10;99.90
5675;DHT22;2860;54.284;10.158;2022-07-29T15:38:56;25.20;99.90
5675;DHT22;2860;54.284;10.158;2022-07-29T15:41:22;25.20;99.90
5675;DHT22;2860;54.284;10.158;2022-07-29T15:43:48;25.40;99.90
5675;DHT22;2860;54.284;10.158;2022-07-29T15:46:15;25.40;99.90
5675;DHT22;2860;54.284;10.158;2022-07-29T15:49:00;25.20;99.90
5675;DHT22;2860;54.284;10.158;2022-07-29T15:51:26;25.10;99.90
5675;DHT22;2860;54.284;10.158;2022-07-29T15:53:51;25.10;99.90
5675;DHT22;2860;54.284;10.158;2022-07-29T15:56:17;24.80;99.90
5675;DHT22;2860;54.284;10.158;2022-07-29T15:58:42;24.30;99.90
5675;DHT22;2860;54.284;10.158;2022-07-29T16:01:08;24.10;99.90
5675;DHT22;2860;54.284;10.158;2022-07-29T16:03:33;23.90;99.90
5675;DHT22;2860;54.284;10.158;2022-07-29T16:05:59;23.70;99.90
5675;DHT22;2860;54.284;10.158;2022-07-29T16:08:24;23.60;99.90
5675;DHT22;2860;54.284;10.158;2022-07-29T16:10:50;23.50;99.90
5675;DHT22;2860;54.284;10.158;2022-07-29T16:13:15;23.70;99.90
5675;DHT22;2860;54.284;10.158;2022-07-29T16:15:41;23.70;99.90
5675;DHT22;2860;54.284;10.158;2022-07-29T16:18:07;23.80;99.90
5675;DHT22;2860;54.284;10.158;2022-07-29T16:20:34;23.90;99.90
5675;DHT22;2860;54.284;10.158;2022-07-29T16:23:00;23.90;99.90
5675;DHT22;2860;54.284;10.158;2022-07-29T16:25:26;23.90;99.90
5675;DHT22;2860;54.284;10.158;2022-07-29T16:27:51;23.90;99.90
5675;DHT22;2860;54.284;10.158;2022-07-29T16:30:17;23.80;99.90
5675;DHT22;2860;54.284;10.158;2022-07-29T16:32:42;23.60;99.90